createdAt,value
2022-12-16T00:01:26.429Z,98770.13
2022-12-16T00:03:55.626Z,98772.78
2022-12-16T00:06:25.277Z,98770.44
2022-12-16T00:08:53.706Z,98776.22
2022-12-16T00:11:22.603Z,98772.78
2022-12-16T00:13:51.876Z,98772.91
2022-12-16T00:16:21.821Z,98778.22
2022-12-16T00:18:51.762Z,98775.88
2022-12-16T00:21:21.837Z,98780.44
2022-12-16T00:23:49.811Z,98783.53
2022-12-16T00:26:17.429Z,98793.06
2022-12-16T00:28:45.085Z,98789.31
2022-12-16T00:31:14.249Z,98788.94
2022-12-16T00:33:42.124Z,98797.91
2022-12-16T00:36:10.892Z,98793.56
2022-12-16T00:38:39.326Z,98794.84
2022-12-16T00:41:07.143Z,98790.84
2022-12-16T00:43:36.218Z,98795.69
2022-12-16T00:46:04.098Z,98800.16
2022-12-16T00:48:33.240Z,98800.88
2022-12-16T00:51:00.900Z,98802.91
2022-12-16T00:53:28.592Z,98813.34
2022-12-16T00:56:03.044Z,98810.31
2022-12-16T00:58:30.823Z,98809.97
2022-12-16T01:00:58.573Z,98806.63
2022-12-16T01:03:26.453Z,98814.44
2022-12-16T01:05:55.570Z,98817.28
2022-12-16T01:08:23.351Z,98829.06
2022-12-16T01:10:51.869Z,98829.88
2022-12-16T01:13:20.326Z,98824.13
2022-12-16T01:15:48.287Z,98832.00
2022-12-16T01:18:16.459Z,98837.41
2022-12-16T01:20:44.104Z,98837.88
2022-12-16T01:23:13.101Z,98835.88
2022-12-16T01:25:40.766Z,98837.75
2022-12-16T01:28:08.472Z,98837.41
2022-12-16T01:30:36.736Z,98835.66
2022-12-16T01:33:04.486Z,98837.75
2022-12-16T01:38:21.420Z,98846.97
2022-12-16T01:40:49.029Z,98846.03
2022-12-16T01:43:17.918Z,98839.22
2022-12-16T01:45:45.700Z,98838.28
2022-12-16T01:48:22.009Z,98844.88
2022-12-16T01:50:51.593Z,98846.53
2022-12-16T01:53:22.700Z,98847.78
2022-12-16T01:55:53.594Z,98843.41
2022-12-16T01:58:24.977Z,98844.97
2022-12-16T02:00:52.964Z,98838.91
2022-12-16T02:03:23.555Z,98842.84
2022-12-16T02:05:51.878Z,98838.22
2022-12-16T02:08:22.709Z,98837.28
2022-12-16T02:11:05.368Z,98839.75
2022-12-16T02:13:42.109Z,98836.09
2022-12-16T02:16:19.722Z,98830.91
2022-12-16T02:18:56.789Z,98838.47
2022-12-16T02:21:48.741Z,98835.50
2022-12-16T02:25:00.985Z,98838.56
2022-12-16T02:27:47.114Z,98828.19
2022-12-16T02:30:53.038Z,98841.06
2022-12-16T02:33:49.413Z,98837.38
2022-12-16T02:36:26.083Z,98839.03
2022-12-16T02:39:00.306Z,98841.72
2022-12-16T02:41:38.927Z,98845.16
2022-12-16T02:44:09.537Z,98850.31
2022-12-16T02:46:43.222Z,98846.25
2022-12-16T02:49:45.930Z,98846.94
2022-12-16T02:52:14.693Z,98842.00
2022-12-16T02:54:44.103Z,98840.91
2022-12-16T02:57:27.667Z,98844.50
2022-12-16T03:00:01.580Z,98854.03
2022-12-16T03:02:38.084Z,98856.38
2022-12-16T03:05:11.667Z,98847.44
2022-12-16T03:07:42.237Z,98848.00
2022-12-16T03:10:15.568Z,98852.34
2022-12-16T03:12:45.891Z,98851.16
2022-12-16T03:15:17.281Z,98858.97
2022-12-16T03:17:49.855Z,98862.25
2022-12-16T03:20:23.961Z,98862.88
2022-12-16T03:22:56.033Z,98862.50
2022-12-16T03:25:26.065Z,98868.56
2022-12-16T03:28:00.244Z,98864.63
2022-12-16T03:30:33.157Z,98868.38
2022-12-16T03:33:07.178Z,98866.41
2022-12-16T03:35:39.109Z,98865.44
2022-12-16T03:38:11.737Z,98870.97
2022-12-16T03:40:42.159Z,98870.16
2022-12-16T03:43:12.300Z,98874.28
2022-12-16T03:45:44.122Z,98883.59
2022-12-16T03:48:17.497Z,98885.47
2022-12-16T03:50:45.547Z,98894.78
2022-12-16T03:53:13.306Z,98891.88
2022-12-16T03:55:42.268Z,98901.19
2022-12-16T03:58:10.075Z,98905.41
2022-12-16T04:00:38.401Z,98914.03
2022-12-16T04:03:06.780Z,98926.16
2022-12-16T04:05:36.356Z,98922.63
2022-12-16T04:08:04.126Z,98918.97
2022-12-16T04:10:49.824Z,98912.94
2022-12-16T04:13:35.588Z,98925.41
2022-12-16T04:16:21.167Z,98925.06
2022-12-16T04:19:07.060Z,98934.00
2022-12-16T04:21:53.401Z,98921.47
2022-12-16T04:24:31.725Z,98924.63
2022-12-16T04:27:22.161Z,98930.00
2022-12-16T04:30:07.516Z,98940.69
2022-12-16T04:32:49.179Z,98949.31
2022-12-16T04:35:30.992Z,98954.44
2022-12-16T04:38:16.587Z,98951.78
2022-12-16T04:41:01.723Z,98956.50
2022-12-16T04:43:47.278Z,98962.03
2022-12-16T04:46:37.851Z,98962.03
2022-12-16T04:49:23.017Z,98958.84
2022-12-16T04:52:08.466Z,98965.31
2022-12-16T04:54:55.085Z,98975.19
2022-12-16T04:57:40.402Z,98969.19
2022-12-16T05:00:26.645Z,98968.81
2022-12-16T05:03:11.991Z,98977.94
2022-12-16T05:05:57.290Z,98979.50
2022-12-16T05:08:42.285Z,98990.78
2022-12-16T05:11:28.660Z,98990.13
2022-12-16T05:14:14.109Z,98994.34
2022-12-16T05:16:59.255Z,99002.28
2022-12-16T05:19:44.579Z,99005.78
2022-12-16T05:22:31.081Z,99009.81
2022-12-16T05:25:12.768Z,99008.34
2022-12-16T05:27:59.667Z,99013.00
2022-12-16T05:30:44.799Z,99010.75
2022-12-16T05:33:41.546Z,99014.59
2022-12-16T05:36:27.882Z,99027.19
2022-12-16T05:39:13.227Z,99028.31
2022-12-16T05:41:59.153Z,99024.75
2022-12-16T05:44:46.405Z,99041.47
2022-12-16T05:47:31.662Z,99046.66
2022-12-16T05:50:17.070Z,99058.28
2022-12-16T05:53:07.748Z,99068.75
2022-12-16T05:55:53.004Z,99072.25
2022-12-16T05:58:38.206Z,99074.16
2022-12-16T06:01:25.680Z,99073.06
2022-12-16T06:04:17.105Z,99080.44
2022-12-16T06:07:03.134Z,99073.41
2022-12-16T06:09:53.170Z,99079.53
2022-12-16T06:12:41.712Z,99083.19
2022-12-16T06:15:27.721Z,99089.06
2022-12-16T06:18:14.318Z,99087.59
2022-12-16T06:20:59.674Z,99082.00
2022-12-16T06:23:44.729Z,99095.44
2022-12-16T06:26:30.325Z,99102.06
2022-12-16T06:29:15.742Z,99112.97
2022-12-16T06:32:16.111Z,99105.41
2022-12-16T06:35:02.769Z,99116.69
2022-12-16T06:37:48.178Z,99122.09
2022-12-16T06:40:33.613Z,99133.22
2022-12-16T06:43:19.124Z,99128.06
2022-12-16T06:46:04.268Z,99135.34
2022-12-16T06:48:49.969Z,99133.69
2022-12-16T06:51:36.365Z,99143.38
2022-12-16T06:54:21.618Z,99156.84
2022-12-16T06:57:06.887Z,99152.63
2022-12-16T06:59:52.297Z,99152.41
2022-12-16T07:02:37.488Z,99168.13
2022-12-16T07:05:23.390Z,99160.94
2022-12-16T07:08:10.832Z,99174.41
2022-12-16T07:11:03.421Z,99173.81
2022-12-16T07:14:02.693Z,99180.47
2022-12-16T07:16:48.045Z,99191.00
2022-12-16T07:19:35.001Z,99194.59
2022-12-16T07:22:20.585Z,99198.19
2022-12-16T07:25:06.916Z,99204.53
2022-12-16T07:27:51.928Z,99200.75
2022-12-16T07:30:37.127Z,99206.31
2022-12-16T07:33:22.205Z,99207.69
2022-12-16T07:36:07.565Z,99215.69
2022-12-16T07:38:53.050Z,99229.47
2022-12-16T07:41:39.666Z,99232.88
2022-12-16T07:44:24.868Z,99240.13
2022-12-16T07:47:10.091Z,99244.75
2022-12-16T07:49:55.697Z,99242.19
2022-12-16T07:53:11.913Z,99248.38
2022-12-16T07:55:59.200Z,99258.94
2022-12-16T07:58:46.465Z,99256.31
2022-12-16T08:01:32.109Z,99260.78
2022-12-16T08:04:18.642Z,99263.53
2022-12-16T08:07:04.123Z,99274.53
2022-12-16T08:09:49.696Z,99275.09
2022-12-16T08:12:35.107Z,99282.34
2022-12-16T08:15:21.843Z,99287.16
2022-12-16T08:18:07.991Z,99286.47
2022-12-16T08:20:54.025Z,99293.81
2022-12-16T08:23:40.866Z,99300.22
2022-12-16T08:26:26.245Z,99301.81
2022-12-16T08:29:35.045Z,99307.44
2022-12-16T08:32:18.230Z,99306.03
2022-12-16T08:35:03.634Z,99310.66
2022-12-16T08:37:54.329Z,99309.00
2022-12-16T08:40:40.839Z,99314.63
2022-12-16T08:43:25.909Z,99314.16
2022-12-16T08:46:12.781Z,99313.84
2022-12-16T08:48:59.539Z,99323.25
2022-12-16T08:51:45.621Z,99325.44
2022-12-16T08:54:30.757Z,99330.06
2022-12-16T08:57:16.152Z,99336.91
2022-12-16T09:00:01.454Z,99338.84
2022-12-16T09:02:46.999Z,99347.06
2022-12-16T09:05:33.539Z,99342.88
2022-12-16T09:08:19.333Z,99344.41
2022-12-16T09:11:04.736Z,99346.28
2022-12-16T09:13:49.952Z,99352.00
2022-12-16T09:16:35.134Z,99354.59
2022-12-16T09:19:20.276Z,99363.88
2022-12-16T09:22:06.847Z,99360.97
2022-12-16T09:24:52.355Z,99364.88
2022-12-16T09:27:37.837Z,99368.13
2022-12-16T09:30:24.343Z,99364.38
2022-12-16T09:33:09.500Z,99363.94
2022-12-16T09:35:54.556Z,99361.72
2022-12-16T09:38:42.308Z,99374.59
2022-12-16T09:41:44.848Z,99362.44
2022-12-16T09:44:40.351Z,99373.19
2022-12-16T09:47:34.827Z,99371.81
2022-12-16T09:50:20.582Z,99373.28
2022-12-16T09:53:12.732Z,99373.53
2022-12-16T09:56:01.017Z,99370.56
2022-12-16T09:58:53.100Z,99372.50
2022-12-16T10:01:40.481Z,99367.00
2022-12-16T10:04:26.698Z,99376.50
2022-12-16T10:07:16.341Z,99373.31
2022-12-16T10:10:12.925Z,99368.88
2022-12-16T10:13:05.709Z,99374.59
2022-12-16T10:15:57.759Z,99382.69
2022-12-16T10:19:05.289Z,99380.31
2022-12-16T10:21:56.032Z,99386.59
2022-12-16T10:24:53.451Z,99386.59
2022-12-16T10:27:49.148Z,99378.06
2022-12-16T10:30:35.560Z,99382.00
2022-12-16T10:33:21.499Z,99387.50
2022-12-16T10:36:09.884Z,99388.03
2022-12-16T10:38:59.584Z,99379.50
2022-12-16T10:41:47.869Z,99381.25
2022-12-16T10:44:42.091Z,99383.75
2022-12-16T10:47:30.633Z,99384.56
2022-12-16T10:50:17.740Z,99387.38
2022-12-16T10:53:09.452Z,99384.56
2022-12-16T10:56:08.201Z,99386.97
2022-12-16T10:59:04.308Z,99388.19
2022-12-16T11:01:55.383Z,99389.03
2022-12-16T11:04:50.198Z,99385.06
2022-12-16T11:07:49.014Z,99390.78
2022-12-16T11:10:50.395Z,99398.16
2022-12-16T11:13:44.760Z,99393.34
2022-12-16T11:16:50.514Z,99398.16
2022-12-16T11:19:39.335Z,99399.22
2022-12-16T11:22:33.127Z,99400.97
2022-12-16T11:25:32.338Z,99407.06
2022-12-16T11:28:23.952Z,99401.44
2022-12-16T11:31:12.291Z,99399.22
2022-12-16T11:33:58.640Z,99406.25
2022-12-16T11:36:45.740Z,99410.97
2022-12-16T11:39:35.651Z,99421.25
2022-12-16T11:42:22.965Z,99411.84
2022-12-16T11:45:12.692Z,99408.31
2022-12-16T11:48:04.334Z,99416.34
2022-12-16T11:50:54.000Z,99417.34
2022-12-16T11:53:51.058Z,99419.00
2022-12-16T11:56:42.897Z,99426.44
2022-12-16T11:59:37.870Z,99431.31
2022-12-16T12:02:33.056Z,99429.94
2022-12-16T12:05:18.455Z,99442.38
2022-12-16T12:08:24.117Z,99433.84
2022-12-16T12:11:19.723Z,99433.63
2022-12-16T12:14:19.957Z,99439.75
2022-12-16T12:17:17.396Z,99441.69
2022-12-16T12:20:12.638Z,99448.41
2022-12-16T12:22:59.272Z,99443.97
2022-12-16T12:26:04.757Z,99442.81
2022-12-16T12:29:07.235Z,99435.66
2022-12-16T12:32:03.144Z,99434.94
2022-12-16T12:35:01.253Z,99446.09
2022-12-16T12:37:52.677Z,99445.31
2022-12-16T12:40:52.338Z,99441.94
2022-12-16T12:43:50.090Z,99459.81
2022-12-16T12:46:47.424Z,99457.22
2022-12-16T12:49:41.127Z,99465.91
2022-12-16T12:52:34.425Z,99469.13
2022-12-16T12:55:28.597Z,99473.19
2022-12-16T12:58:15.018Z,99475.97
2022-12-16T13:01:04.941Z,99473.25
2022-12-16T13:03:52.133Z,99479.91
2022-12-16T13:06:41.499Z,99473.44
2022-12-16T13:09:46.742Z,99479.84
2022-12-16T13:12:41.494Z,99482.97
2022-12-16T13:15:27.564Z,99486.09
2022-12-16T13:18:51.202Z,99482.91
2022-12-16T13:22:05.242Z,99480.72
2022-12-16T13:25:02.984Z,99484.41
2022-12-16T13:28:04.601Z,99487.03
2022-12-16T13:30:52.064Z,99493.22
2022-12-16T13:33:42.218Z,99500.41
2022-12-16T13:36:29.037Z,99501.56
2022-12-16T13:39:19.519Z,99499.66
2022-12-16T13:42:09.495Z,99507.03
2022-12-16T13:45:18.199Z,99512.63
2022-12-16T13:48:23.742Z,99520.44
2022-12-16T13:51:18.154Z,99522.81
2022-12-16T13:54:08.292Z,99531.22
2022-12-16T13:57:00.259Z,99533.03
2022-12-16T13:59:49.803Z,99537.53
2022-12-16T14:02:44.188Z,99538.06
2022-12-16T14:05:37.859Z,99548.16
2022-12-16T14:08:25.044Z,99558.34
2022-12-16T14:11:19.120Z,99561.06
2022-12-16T14:14:11.689Z,99557.28
2022-12-16T14:17:09.215Z,99567.63
2022-12-16T14:20:05.495Z,99573.53
2022-12-16T14:23:06.212Z,99575.13
2022-12-16T14:25:51.249Z,99581.00
2022-12-16T14:28:45.549Z,99586.13
2022-12-16T14:31:35.882Z,99580.03
2022-12-16T14:34:21.764Z,99593.13
2022-12-16T14:37:07.331Z,99594.38
2022-12-16T14:39:57.481Z,99597.91
2022-12-16T14:42:44.400Z,99607.59
2022-12-16T14:45:41.721Z,99608.72
2022-12-16T14:48:49.895Z,99611.31
2022-12-16T14:51:42.170Z,99614.97
2022-12-16T14:54:45.141Z,99619.91
2022-12-16T14:57:33.667Z,99621.78
2022-12-16T15:00:30.718Z,99622.97
2022-12-16T15:03:20.812Z,99627.22
2022-12-16T15:06:11.721Z,99629.22
2022-12-16T15:09:09.009Z,99632.72
2022-12-16T15:11:56.074Z,99643.72
2022-12-16T15:14:46.477Z,99649.66
2022-12-16T15:17:39.756Z,99652.25
2022-12-16T15:20:35.714Z,99644.38
2022-12-16T15:23:22.502Z,99655.69
2022-12-16T15:26:12.771Z,99657.38
2022-12-16T15:29:00.934Z,99667.09
2022-12-16T15:31:50.488Z,99682.03
2022-12-16T15:34:41.680Z,99681.97
2022-12-16T15:37:34.857Z,99680.56
2022-12-16T15:40:22.168Z,99673.50
2022-12-16T15:43:10.790Z,99687.81
2022-12-16T15:45:55.806Z,99685.97
2022-12-16T15:48:44.697Z,99688.50
2022-12-16T15:51:42.687Z,99696.28
2022-12-16T15:54:35.471Z,99696.19
2022-12-16T15:57:38.854Z,99708.16
2022-12-16T16:00:40.386Z,99707.59
2022-12-16T16:03:37.873Z,99721.31
2022-12-16T16:06:30.838Z,99720.47
2022-12-16T16:09:24.628Z,99715.47
2022-12-16T16:12:09.737Z,99733.06
2022-12-16T16:14:56.409Z,99734.69
2022-12-16T16:17:42.272Z,99736.75
2022-12-16T16:20:32.509Z,99743.19
2022-12-16T16:23:17.869Z,99745.81
2022-12-16T16:26:04.264Z,99753.84
2022-12-16T16:28:49.512Z,99752.91
2022-12-16T16:31:35.785Z,99758.16
2022-12-16T16:34:21.032Z,99756.56
2022-12-16T16:37:10.706Z,99757.81
2022-12-16T16:39:56.124Z,99766.00
2022-12-16T16:42:41.829Z,99771.34
2022-12-16T16:45:27.741Z,99775.09
2022-12-16T16:48:24.441Z,99772.84
2022-12-16T16:51:09.330Z,99774.47
2022-12-16T16:53:54.658Z,99777.03
2022-12-16T16:56:40.052Z,99786.41
2022-12-16T16:59:27.269Z,99788.22
2022-12-16T17:02:13.010Z,99782.72
2022-12-16T17:05:08.215Z,99786.06
2022-12-16T17:08:08.368Z,99804.03
2022-12-16T17:10:53.828Z,99804.03
2022-12-16T17:13:39.312Z,99812.25
2022-12-16T17:16:25.122Z,99804.94
2022-12-16T17:19:10.572Z,99817.19
2022-12-16T17:21:56.312Z,99808.38
2022-12-16T17:24:46.978Z,99815.69
2022-12-16T17:27:35.023Z,99824.41
2022-12-16T17:30:20.728Z,99817.75
2022-12-16T17:33:06.115Z,99818.97
2022-12-16T17:35:51.136Z,99815.19
2022-12-16T17:38:37.644Z,99829.19
2022-12-16T17:41:23.177Z,99823.97
2022-12-16T17:44:11.180Z,99830.50
2022-12-16T17:46:56.475Z,99838.56
2022-12-16T17:49:41.705Z,99833.59
2022-12-16T17:52:26.960Z,99842.88
2022-12-16T17:55:13.652Z,99849.66
2022-12-16T17:57:59.115Z,99852.78
2022-12-16T18:00:58.804Z,99855.13
2022-12-16T18:03:44.674Z,99859.75
2022-12-16T18:06:29.987Z,99862.09
2022-12-16T18:09:15.477Z,99867.28
2022-12-16T18:12:02.337Z,99869.44
2022-12-16T18:14:47.787Z,99868.03
2022-12-16T18:17:33.317Z,99874.50
2022-12-16T18:20:18.981Z,99882.75
2022-12-16T18:23:04.379Z,99883.38
2022-12-16T18:25:59.203Z,99880.00
2022-12-16T18:28:45.487Z,99889.66
2022-12-16T18:31:30.659Z,99890.91
2022-12-16T18:34:16.273Z,99894.91
2022-12-16T18:37:01.360Z,99886.88
2022-12-16T18:39:46.709Z,99902.00
2022-12-16T18:42:32.290Z,99902.91
2022-12-16T18:45:19.099Z,99910.22
2022-12-16T18:48:04.155Z,99914.88
2022-12-16T18:50:49.334Z,99926.03
2022-12-16T18:53:34.878Z,99930.41
2022-12-16T18:56:21.393Z,99922.41
2022-12-16T18:59:02.956Z,99924.69
2022-12-16T19:01:49.271Z,99936.47
2022-12-16T19:04:34.851Z,99939.22
2022-12-16T19:07:20.118Z,99938.31
2022-12-16T19:10:05.302Z,99942.63
2022-12-16T19:13:05.615Z,99956.78
2022-12-16T19:15:59.014Z,99962.84
2022-12-16T19:18:52.568Z,99964.50
2022-12-16T19:21:52.401Z,99978.84
2022-12-16T19:28:25.207Z,99985.16
2022-12-16T19:31:18.280Z,99977.31
2022-12-16T19:34:11.879Z,99983.25
2022-12-16T19:36:58.450Z,99991.63
2022-12-16T19:39:47.050Z,99988.16
2022-12-16T19:42:36.952Z,99995.88
2022-12-16T19:45:25.878Z,99998.09
2022-12-16T19:48:27.028Z,99994.72
2022-12-16T19:51:24.648Z,100000.06
2022-12-16T19:54:52.308Z,100003.50
2022-12-16T19:57:39.704Z,100008.31
2022-12-16T20:00:36.730Z,100017.34
2022-12-16T20:03:29.282Z,100007.22
2022-12-16T20:06:29.771Z,100012.50
2022-12-16T20:09:24.102Z,100021.03
2022-12-16T20:12:17.583Z,100022.97
2022-12-16T20:15:04.014Z,100024.34
2022-12-16T20:17:52.212Z,100024.28
2022-12-16T20:20:42.104Z,100027.53
2022-12-16T20:23:32.156Z,100030.47
2022-12-16T20:26:23.098Z,100040.84
2022-12-16T20:29:23.519Z,100040.22
2022-12-16T20:32:13.916Z,100044.81
2022-12-16T20:35:06.697Z,100046.03
2022-12-16T20:38:01.383Z,100042.63
2022-12-16T20:41:06.847Z,100046.13
2022-12-16T20:43:56.131Z,100043.69
2022-12-16T20:46:45.809Z,100044.59
2022-12-16T20:49:34.346Z,100052.56
2022-12-16T20:52:23.699Z,100049.88
2022-12-16T20:55:17.773Z,100050.38
2022-12-16T20:58:19.227Z,100061.72
2022-12-16T21:01:16.175Z,100072.84
2022-12-16T21:04:04.323Z,100075.53
2022-12-16T21:06:50.155Z,100082.34
2022-12-16T21:09:55.187Z,100087.50
2022-12-16T21:13:07.015Z,100089.16
2022-12-16T21:16:06.846Z,100101.53
2022-12-16T21:19:15.322Z,100101.84
2022-12-16T21:22:00.722Z,100110.41
2022-12-16T21:24:45.968Z,100109.19
2022-12-16T21:27:31.328Z,100121.25
2022-12-16T21:30:16.645Z,100119.88
2022-12-16T21:33:03.503Z,100125.00
2022-12-16T21:35:49.016Z,100136.28
2022-12-16T21:38:34.055Z,100143.38
2022-12-16T21:41:19.535Z,100138.75
2022-12-16T21:44:04.458Z,100138.81
2022-12-16T21:46:49.952Z,100144.66
2022-12-16T21:49:44.844Z,100143.94
2022-12-16T21:52:30.013Z,100152.66
2022-12-16T21:55:15.196Z,100141.53
2022-12-16T21:58:01.392Z,100156.47
2022-12-16T22:00:47.562Z,100157.16
2022-12-16T22:03:32.652Z,100169.28
2022-12-16T22:06:19.319Z,100173.94
2022-12-16T22:09:04.648Z,100176.06
2022-12-16T22:11:50.056Z,100179.91
2022-12-16T22:14:35.077Z,100182.50
2022-12-16T22:17:20.541Z,100187.13
2022-12-16T22:20:05.826Z,100196.84
2022-12-16T22:22:52.223Z,100200.19
2022-12-16T22:25:33.864Z,100211.78
2022-12-16T22:28:19.010Z,100203.06
2022-12-16T22:31:15.598Z,100219.50
2022-12-16T22:34:01.438Z,100214.47
2022-12-16T22:36:46.691Z,100219.88
2022-12-16T22:39:32.896Z,100222.88
2022-12-16T22:42:18.315Z,100225.03
2022-12-16T22:45:03.653Z,100227.78
2022-12-16T22:47:49.675Z,100227.06
2022-12-16T22:50:43.714Z,100230.53
2022-12-16T22:53:31.499Z,100226.41
2022-12-16T22:56:17.869Z,100234.59
2022-12-16T22:59:03.117Z,100232.81
2022-12-16T23:01:48.649Z,100239.59
2022-12-16T23:04:33.862Z,100235.94
2022-12-16T23:07:19.193Z,100248.38
2022-12-16T23:10:04.515Z,100248.75
2022-12-16T23:12:51.278Z,100251.81
2022-12-16T23:15:37.307Z,100252.75
2022-12-16T23:18:22.369Z,100256.41
2022-12-16T23:21:08.352Z,100262.09
2022-12-16T23:23:56.949Z,100250.09
2022-12-16T23:26:42.588Z,100258.75
2022-12-16T23:29:28.882Z,100268.00
2022-12-16T23:32:14.268Z,100268.25
2022-12-16T23:34:59.655Z,100262.03
2022-12-16T23:37:44.935Z,100264.25
2022-12-16T23:40:31.044Z,100263.25
2022-12-16T23:43:16.498Z,100271.25
2022-12-16T23:46:02.871Z,100273.00
2022-12-16T23:48:48.171Z,100276.56
2022-12-16T23:51:33.233Z,100278.81
2022-12-16T23:54:18.516Z,100273.81
2022-12-16T23:57:03.922Z,100284.84
2022-12-16T23:59:49.546Z,100280.44
